Morning Cecilie — 3FHK6 — position and weather

sailwx.info

Track history (hours):
 
Tides and Currents Weather Stations Pressure Air Temp Water Temp Dewpoint Dewpoint Depression Visibility Wind Speed Wind Dir Waves Ship Positions

Morning Cecilie

Last reported at 2018-Jul-14 14:09 UTC. Time now 2018-Jul-22 04:50 UTC.
Position N 31°27' E 032°17'.

Length 199 m; draft 9.2 m.

Type: Cargo ship. MMSI: 370869000.

Date/timePositionNaut miles runAvg speedWind from/ knotsBaromVisibWave heightAir tempDewpointWater temp
2018-Jul-14 14:09N 31°27' E 032°17'1215.8
2018-Jul-14 13:24N 31°36' E 032°07'86216.7
2018-Jul-12 09:44N 36°04' E 015°41'517.0
2018-Jul-12 09:27N 36°06' E 015°35'817.0
2018-Jul-12 09:00N 36°08' E 015°27'917.2
2018-Jul-12 08:30N 36°11' E 015°16'817.2
2018-Jul-12 08:00N 36°13' E 015°06'917.5
2018-Jul-12 07:30N 36°15' E 014°56'917.6
2018-Jul-12 07:00N 36°18' E 014°45'917.3
2018-Jul-12 06:30N 36°20' E 014°35'917.2
2018-Jul-12 05:59N 36°23' E 014°24'817.4
2018-Jul-12 05:30N 36°26' E 014°14'917.6
2018-Jul-12 05:00N 36°28' E 014°04'917.6
2018-Jul-12 04:30N 36°31' E 013°54'917.6
2018-Jul-12 04:00N 36°34' E 013°43'917.2
2018-Jul-12 03:30N 36°36' E 013°33'917.2
2018-Jul-12 03:00N 36°39' E 013°23'24517.0
2018-Jul-11 12:36N 37°40' E 008°26'117.1
2018-Jul-11 12:30N 37°39' E 008°24'12117.1
2018-Jul-11 05:26N 37°22' E 005°53'817.0
2018-Jul-11 04:59N 37°21' E 005°43'817.2
2018-Jul-11 04:30N 37°20' E 005°33'1017.1
2018-Jul-11 03:54N 37°19' E 005°20'716.9
2018-Jul-11 03:29N 37°18' E 005°11'817.3
2018-Jul-11 03:00N 37°17' E 005°01'817.3
2018-Jul-11 02:30N 37°15' E 004°50'917.1
2018-Jul-11 02:00N 37°14' E 004°40'817.0
2018-Jul-11 01:31N 37°13' E 004°29'917.1
2018-Jul-11 01:00N 37°12' E 004°18'816.8
2018-Jul-11 00:30N 37°11' E 004°08'816.7
2018-Jul-11 00:00N 37°09' E 003°58'816.7
2018-Jul-10 23:30N 37°08' E 003°47'1716.7
2018-Jul-10 22:30N 37°06' E 003°26'1616.8
2018-Jul-10 21:35N 37°04' E 003°07'116.2
2018-Jul-10 21:30N 37°04' E 003°06'917.2
2018-Jul-10 20:59N 37°03' E 002°54'817.3
2018-Jul-10 20:30N 37°00' E 002°44'917.3
2018-Jul-10 20:00N 36°59' E 002°34'917.5
2018-Jul-10 19:30N 36°57' E 002°23'917.6
2018-Jul-10 18:59N 36°56' E 002°12'917.5
2018-Jul-10 18:28N 36°54' E 002°01'917.6
2018-Jul-10 17:59N 36°52' E 001°50'918.1
2018-Jul-10 17:29N 36°51' E 001°39'1018.1
2018-Jul-10 16:57N 36°49' E 001°27'817.8
2018-Jul-10 16:29N 36°48' E 001°17'917.8
2018-Jul-10 16:00N 36°46' E 001°06'917.7
2018-Jul-10 15:31N 36°45' E 000°56'917.6
2018-Jul-10 15:00N 36°43' E 000°45'917.8
2018-Jul-10 14:30N 36°41' E 000°34'1017.9
2018-Jul-10 13:57N 36°39' E 000°22'818.4
2018-Jul-10 13:30N 36°38' E 000°12'1018.5
2018-Jul-10 12:57N 36°37' W 000°01'818.2
2018-Jul-10 12:30N 36°35' W 000°11'917.6
2018-Jul-10 11:58N 36°33' W 000°22'817.4
2018-Jul-10 11:30N 36°31' W 000°32'917.3
2018-Jul-10 11:01N 36°30' W 000°43'1016.9
2018-Jul-10 10:25N 36°28' W 000°55'917.0
2018-Jul-10 09:54N 36°27' W 001°06'1017.3
2018-Jul-10 09:18N 36°25' W 001°18'518.5
2018-Jul-10 09:00N 36°24' W 001°25'1018.3
2018-Jul-10 08:27N 36°22' W 001°37'2017.9
2018-Jul-10 07:19N 36°18' W 002°02'1417.7
2018-Jul-10 06:31N 36°17' W 002°20'817.9
2018-Jul-10 06:04N 36°16' W 002°30'117.8
2018-Jul-10 06:00N 36°16' W 002°31'13018.3
2018-Jul-09 22:54N 36°01' W 005°11'819.2
2018-Jul-09 22:31N 35°59' W 005°20'918.5
2018-Jul-09 22:00N 35°57' W 005°31'2216.3
2018-Jul-09 20:41N 35°55' W 005°57'7217.1
2018-Jul-09 16:30N 36°09' W 007°24'1217.5
2018-Jul-09 15:47N 36°12' W 007°39'917.2
2018-Jul-09 15:17N 36°15' W 007°50'517.3
2018-Jul-09 15:00N 36°16' W 007°55'917.3
2018-Jul-09 14:29N 36°18' W 008°06'817.0
2018-Jul-09 14:01N 36°20' W 008°16'816.9
2018-Jul-09 13:30N 36°23' W 008°26'917.2
2018-Jul-09 12:58N 36°26' W 008°37'917.1
2018-Jul-09 12:27N 36°28' W 008°47'817.0
2018-Jul-09 12:00N 36°30' W 008°56'1217.2
2018-Jul-09 11:18N 36°33' W 009°11'1716.8
2018-Jul-09 10:17N 36°43' W 009°28'516.9
2018-Jul-09 10:00N 36°47' W 009°32'917.2
2018-Jul-09 09:29N 36°55' W 009°35'1117.3
2018-Jul-09 08:52N 37°06' W 009°38'1017.7
2018-Jul-09 08:18N 37°16' W 009°41'517.9
2018-Jul-09 08:00N 37°21' W 009°42'917.6
2018-Jul-09 07:30N 37°30' W 009°45'917.8
2018-Jul-09 07:01N 37°38' W 009°47'917.8
2018-Jul-09 06:31N 37°47' W 009°50'917.8
2018-Jul-09 06:01N 37°55' W 009°53'917.1
2018-Jul-09 05:30N 38°03' W 009°56'917.1
2018-Jul-09 05:00N 38°12' W 009°58'917.4
2018-Jul-09 04:30N 38°20' W 010°00'917.6
2018-Jul-09 04:00N 38°29' W 010°03'917.3
2018-Jul-09 03:31N 38°37' W 010°06'917.4
2018-Jul-09 03:00N 38°46' W 010°07'917.6
2018-Jul-09 02:31N 38°55' W 010°07'917.4
2018-Jul-09 02:00N 39°03' W 010°07'918.0
2018-Jul-09 01:30N 39°12' W 010°07'917.2
2018-Jul-09 01:00N 39°21' W 010°07'917.6
2018-Jul-09 00:30N 39°30' W 010°07'917.6
2018-Jul-08 23:59N 39°39' W 010°07'917.6
2018-Jul-08 23:30N 39°47' W 010°07'1317.4
2018-Jul-08 22:44N 40°01' W 010°06'417.4
2018-Jul-08 22:30N 40°05' W 010°06'1117.5
2018-Jul-08 21:54N 40°15' W 010°06'717.9
2018-Jul-08 21:30N 40°22' W 010°06'917.7
2018-Jul-08 20:59N 40°32' W 010°06'917.8
2018-Jul-08 20:28N 40°41' W 010°06'48917.1
2018-Jul-07 15:58N 48°21' W 006°16'818.2
2018-Jul-07 15:30N 48°28' W 006°10'917.9
2018-Jul-07 15:01N 48°36' W 006°03'918.2
2018-Jul-07 14:31N 48°44' W 005°57'917.8
2018-Jul-07 14:00N 48°52' W 005°50'817.0
2018-Jul-07 13:31N 48°58' W 005°41'917.3
2018-Jul-07 13:00N 49°02' W 005°30'917.1
2018-Jul-07 12:31N 49°06' W 005°18'816.8
2018-Jul-07 12:01N 49°10' W 005°07'816.6
2018-Jul-07 11:31N 49°14' W 004°56'816.3
2018-Jul-07 11:00N 49°19' W 004°45'816.3
2018-Jul-07 10:30N 49°23' W 004°34'1016.5
2018-Jul-07 09:55N 49°28' W 004°22'1016.7
2018-Jul-07 09:19N 49°33' W 004°08'517.0
2018-Jul-07 09:01N 49°35' W 004°01'917.3
2018-Jul-07 08:30N 49°40' W 003°49'917.6
2018-Jul-07 08:00N 49°44' W 003°38'917.9
2018-Jul-07 07:30N 49°49' W 003°26'918.3
2018-Jul-07 07:00N 49°53' W 003°13'918.3
2018-Jul-07 06:31N 49°58' W 003°01'917.9
2018-Jul-07 06:00N 50°01' W 002°48'917.8
2018-Jul-07 05:30N 50°04' W 002°35'917.4
2018-Jul-07 05:00N 50°06' W 002°22'917.1
2018-Jul-07 04:30N 50°08' W 002°09'816.5
2018-Jul-07 04:00N 50°11' W 001°57'816.0
2018-Jul-07 03:30N 50°13' W 001°45'815.5
2018-Jul-07 03:00N 50°15' W 001°33'715.1
2018-Jul-07 02:31N 50°17' W 001°22'815.0
2018-Jul-07 02:00N 50°19' W 001°10'714.8
2018-Jul-07 01:30N 50°21' W 000°59'815.3
2018-Jul-07 01:00N 50°23' W 000°48'815.8
2018-Jul-07 00:30N 50°26' W 000°36'816.1
2018-Jul-07 00:00N 50°28' W 000°24'816.7
2018-Jul-06 23:30N 50°30' W 000°11'917.1
2018-Jul-06 23:00N 50°32' E 000°02'917.7
2018-Jul-06 22:30N 50°35' E 000°15'918.0
2018-Jul-06 22:01N 50°38' E 000°29'917.9
2018-Jul-06 21:30N 50°42' E 000°41'917.7
2018-Jul-06 21:01N 50°47' E 000°53'917.1
2018-Jul-06 20:31N 50°52' E 001°04'816.9
2018-Jul-06 20:00N 50°57' E 001°14'816.0
2018-Jul-06 19:30N 51°02' E 001°24'815.7
2018-Jul-06 19:01N 51°07' E 001°34'815.3
2018-Jul-06 18:31N 51°12' E 001°43'815.3
2018-Jul-06 18:00N 51°18' E 001°50'815.8
2018-Jul-06 17:30N 51°25' E 001°56'816.5
2018-Jul-06 17:01N 51°32' E 002°03'816.8
2018-Jul-06 16:31N 51°38' E 002°13'917.0
2018-Jul-06 16:01N 51°44' E 002°23'917.7
2018-Jul-06 15:31N 51°50' E 002°32'918.1
2018-Jul-06 15:01N 51°57' E 002°42'918.2
2018-Jul-06 14:30N 52°04' E 002°51'918.3
2018-Jul-06 14:01N 52°11' E 003°00'918.3
2018-Jul-06 13:31N 52°19' E 003°09'918.0
2018-Jul-06 13:00N 52°26' E 003°18'917.8
2018-Jul-06 12:30N 52°34' E 003°26'917.3
2018-Jul-06 12:00N 52°41' E 003°35'917.1
2018-Jul-06 11:31N 52°47' E 003°43'816.9
2018-Jul-06 11:01N 52°54' E 003°53'816.6
2018-Jul-06 10:30N 52°60' E 004°02'816.3
2018-Jul-06 10:00N 53°05' E 004°13'816.4
2018-Jul-06 09:30N 53°10' E 004°23'816.1
2018-Jul-06 09:00N 53°17' E 004°30'816.4
2018-Jul-06 08:31N 53°24' E 004°35'816.4
2018-Jul-06 08:00N 53°31' E 004°44'917.2
2018-Jul-06 07:30N 53°33' E 004°58'917.6
2018-Jul-06 07:00N 53°36' E 005°12'918.0
2018-Jul-06 06:30N 53°39' E 005°26'917.9
2018-Jul-06 06:00N 53°42' E 005°41'1017.7
2018-Jul-06 05:28N 53°45' E 005°56'817.6
2018-Jul-06 05:00N 53°48' E 006°09'917.3
2018-Jul-06 04:28N 53°51' E 006°24'916.9
2018-Jul-06 03:55N 53°53' E 006°39'916.7
2018-Jul-06 03:24N 53°55' E 006°54'1616.4
2018-Jul-06 02:24N 53°58' E 007°21'1612.7
2018-Jul-06 01:07N 53°53' E 007°47'212.1
2018-Jul-06 00:59N 53°52' E 007°50'510.4
2018-Jul-06 00:30N 53°51' E 007°58'713.8
2018-Jul-06 00:00N 53°48' E 008°08'714.8
2018-Jul-05 23:30N 53°43' E 008°18'815.4
2018-Jul-05 23:01N 53°38' E 008°27'5 9.5
2018-Jul-05 22:30N 53°34' E 008°32'0 0.6
2018-Jul-05 22:00N 53°34' E 008°33'0 0.8
2018-Jul-05 21:30N 53°35' E 008°33'0 0.0
2018-Jul-05 21:00N 53°35' E 008°33'0 0.0
2018-Jul-05 20:30N 53°35' E 008°33'0 0.0
2018-Jul-05 20:00N 53°35' E 008°33'0 0.0
2018-Jul-05 19:30N 53°35' E 008°33'0 0.0
2018-Jul-05 19:00N 53°35' E 008°33'0 0.0
2018-Jul-05 18:30N 53°35' E 008°33'0 0.0
2018-Jul-05 18:00N 53°35' E 008°33'0 0.0
2018-Jul-05 17:30N 53°35' E 008°33'0 0.0
2018-Jul-05 17:00N 53°35' E 008°33'0 0.0
2018-Jul-05 16:30N 53°35' E 008°33'0 0.0
2018-Jul-05 16:00N 53°35' E 008°33'0 0.0
2018-Jul-05 15:30N 53°35' E 008°33'0 0.0
2018-Jul-05 15:00N 53°35' E 008°33'0 0.0
2018-Jul-05 14:00N 53°35' E 008°33'0 0.0
2018-Jul-05 13:30N 53°35' E 008°33'0 0.0
2018-Jul-05 13:00N 53°35' E 008°33'0 0.0
2018-Jul-05 12:30N 53°35' E 008°33'0 0.0
2018-Jul-05 12:00N 53°35' E 008°33'0 0.0
2018-Jul-05 11:30N 53°35' E 008°33'0 0.0
2018-Jul-05 11:00N 53°35' E 008°33'0 0.0
2018-Jul-05 10:30N 53°35' E 008°33'0 0.1
2018-Jul-05 10:00N 53°35' E 008°33'0 0.1
2018-Jul-05 09:30N 53°35' E 008°33'0 0.0
2018-Jul-05 09:00N 53°35' E 008°33'0 0.0
2018-Jul-05 08:30N 53°35' E 008°33'0 0.0
2018-Jul-05 08:00N 53°35' E 008°33'0 0.0
2018-Jul-05 07:30N 53°35' E 008°33'0 0.0
2018-Jul-05 07:00N 53°35' E 008°33'0 0.0
2018-Jul-05 06:30N 53°35' E 008°33'0 0.0
2018-Jul-05 06:00N 53°35' E 008°33'0 0.0
2018-Jul-05 05:30N 53°35' E 008°33'0 0.0
2018-Jul-05 05:00N 53°35' E 008°33'0 0.0
2018-Jul-05 04:30N 53°35' E 008°33'0 0.0
2018-Jul-05 04:00N 53°35' E 008°33'0 0.0
2018-Jul-05 03:30N 53°35' E 008°33'0 0.0
2018-Jul-05 03:00N 53°35' E 008°33'0 0.0
2018-Jul-05 02:30N 53°35' E 008°33'0 0.0
2018-Jul-05 02:00N 53°35' E 008°33'0 0.0
2018-Jul-05 01:30N 53°35' E 008°33'0 0.0
2018-Jul-05 01:00N 53°35' E 008°33'0 0.0
2018-Jul-05 00:30N 53°35' E 008°33'0 0.0
2018-Jul-05 00:00N 53°35' E 008°33'0 0.0
2018-Jul-04 23:30N 53°35' E 008°33'0 0.0
2018-Jul-04 23:00N 53°35' E 008°33'0 0.0
2018-Jul-04 22:30N 53°35' E 008°33'0 0.0
2018-Jul-04 22:00N 53°35' E 008°33'0 0.0
2018-Jul-04 21:30N 53°35' E 008°33'0 0.0
2018-Jul-04 21:00N 53°35' E 008°33'0 0.0
2018-Jul-04 20:30N 53°35' E 008°33'0 0.0
2018-Jul-04 20:00N 53°35' E 008°33'0 0.0
2018-Jul-04 19:30N 53°35' E 008°33'0 0.0
2018-Jul-04 19:00N 53°35' E 008°33'0 0.0
2018-Jul-04 18:30N 53°35' E 008°33'0 0.0
2018-Jul-04 18:00N 53°35' E 008°33'0 0.0
2018-Jul-04 17:30N 53°35' E 008°33'0 0.0
2018-Jul-04 17:00N 53°35' E 008°33'0 0.0
2018-Jul-04 16:30N 53°35' E 008°33'0 0.0
2018-Jul-04 16:00N 53°35' E 008°33'0 0.0
2018-Jul-04 15:30N 53°35' E 008°33'0 0.0
2018-Jul-04 15:00N 53°35' E 008°33'0 0.0
2018-Jul-04 14:30N 53°35' E 008°33'  
Track history (hours):
 
Tides and Currents Weather Stations Pressure Air Temp Water Temp Dewpoint Dewpoint Depression Visibility Wind Speed Wind Dir Waves Ship Positions

Morning Cecilie

Last reported at 2018-Jul-14 14:09 UTC. Time now 2018-Jul-22 04:50 UTC.
Position N 31°27' E 032°17'.

Length 199 m; draft 9.2 m.

Type: Cargo ship. MMSI: 370869000.

Date/timePositionNaut miles runAvg speedWind from/ knotsBaromVisibWave heightAir tempDewpointWater temp
2018-Jul-14 14:09N 31°27' E 032°17'1215.8
2018-Jul-14 13:24N 31°36' E 032°07'86216.7
2018-Jul-12 09:44N 36°04' E 015°41'517.0
2018-Jul-12 09:27N 36°06' E 015°35'817.0
2018-Jul-12 09:00N 36°08' E 015°27'917.2
2018-Jul-12 08:30N 36°11' E 015°16'817.2
2018-Jul-12 08:00N 36°13' E 015°06'917.5
2018-Jul-12 07:30N 36°15' E 014°56'917.6
2018-Jul-12 07:00N 36°18' E 014°45'917.3
2018-Jul-12 06:30N 36°20' E 014°35'917.2
2018-Jul-12 05:59N 36°23' E 014°24'817.4
2018-Jul-12 05:30N 36°26' E 014°14'917.6
2018-Jul-12 05:00N 36°28' E 014°04'917.6
2018-Jul-12 04:30N 36°31' E 013°54'917.6
2018-Jul-12 04:00N 36°34' E 013°43'917.2
2018-Jul-12 03:30N 36°36' E 013°33'917.2
2018-Jul-12 03:00N 36°39' E 013°23'24517.0
2018-Jul-11 12:36N 37°40' E 008°26'117.1
2018-Jul-11 12:30N 37°39' E 008°24'12117.1
2018-Jul-11 05:26N 37°22' E 005°53'817.0
2018-Jul-11 04:59N 37°21' E 005°43'817.2
2018-Jul-11 04:30N 37°20' E 005°33'1017.1
2018-Jul-11 03:54N 37°19' E 005°20'716.9
2018-Jul-11 03:29N 37°18' E 005°11'817.3
2018-Jul-11 03:00N 37°17' E 005°01'817.3
2018-Jul-11 02:30N 37°15' E 004°50'917.1
2018-Jul-11 02:00N 37°14' E 004°40'817.0
2018-Jul-11 01:31N 37°13' E 004°29'917.1
2018-Jul-11 01:00N 37°12' E 004°18'816.8
2018-Jul-11 00:30N 37°11' E 004°08'816.7
2018-Jul-11 00:00N 37°09' E 003°58'816.7
2018-Jul-10 23:30N 37°08' E 003°47'1716.7
2018-Jul-10 22:30N 37°06' E 003°26'1616.8
2018-Jul-10 21:35N 37°04' E 003°07'116.2
2018-Jul-10 21:30N 37°04' E 003°06'917.2
2018-Jul-10 20:59N 37°03' E 002°54'817.3
2018-Jul-10 20:30N 37°00' E 002°44'917.3
2018-Jul-10 20:00N 36°59' E 002°34'917.5
2018-Jul-10 19:30N 36°57' E 002°23'917.6
2018-Jul-10 18:59N 36°56' E 002°12'917.5
2018-Jul-10 18:28N 36°54' E 002°01'917.6
2018-Jul-10 17:59N 36°52' E 001°50'918.1
2018-Jul-10 17:29N 36°51' E 001°39'1018.1
2018-Jul-10 16:57N 36°49' E 001°27'817.8
2018-Jul-10 16:29N 36°48' E 001°17'917.8
2018-Jul-10 16:00N 36°46' E 001°06'917.7
2018-Jul-10 15:31N 36°45' E 000°56'917.6
2018-Jul-10 15:00N 36°43' E 000°45'917.8
2018-Jul-10 14:30N 36°41' E 000°34'1017.9
2018-Jul-10 13:57N 36°39' E 000°22'818.4
2018-Jul-10 13:30N 36°38' E 000°12'1018.5
2018-Jul-10 12:57N 36°37' W 000°01'818.2
2018-Jul-10 12:30N 36°35' W 000°11'917.6
2018-Jul-10 11:58N 36°33' W 000°22'817.4
2018-Jul-10 11:30N 36°31' W 000°32'917.3
2018-Jul-10 11:01N 36°30' W 000°43'1016.9
2018-Jul-10 10:25N 36°28' W 000°55'917.0
2018-Jul-10 09:54N 36°27' W 001°06'1017.3
2018-Jul-10 09:18N 36°25' W 001°18'518.5
2018-Jul-10 09:00N 36°24' W 001°25'1018.3
2018-Jul-10 08:27N 36°22' W 001°37'2017.9
2018-Jul-10 07:19N 36°18' W 002°02'1417.7
2018-Jul-10 06:31N 36°17' W 002°20'817.9
2018-Jul-10 06:04N 36°16' W 002°30'117.8
2018-Jul-10 06:00N 36°16' W 002°31'13018.3
2018-Jul-09 22:54N 36°01' W 005°11'819.2
2018-Jul-09 22:31N 35°59' W 005°20'918.5
2018-Jul-09 22:00N 35°57' W 005°31'2216.3
2018-Jul-09 20:41N 35°55' W 005°57'7217.1
2018-Jul-09 16:30N 36°09' W 007°24'1217.5
2018-Jul-09 15:47N 36°12' W 007°39'917.2
2018-Jul-09 15:17N 36°15' W 007°50'517.3
2018-Jul-09 15:00N 36°16' W 007°55'917.3
2018-Jul-09 14:29N 36°18' W 008°06'817.0
2018-Jul-09 14:01N 36°20' W 008°16'816.9
2018-Jul-09 13:30N 36°23' W 008°26'917.2
2018-Jul-09 12:58N 36°26' W 008°37'917.1
2018-Jul-09 12:27N 36°28' W 008°47'817.0
2018-Jul-09 12:00N 36°30' W 008°56'1217.2
2018-Jul-09 11:18N 36°33' W 009°11'1716.8
2018-Jul-09 10:17N 36°43' W 009°28'516.9
2018-Jul-09 10:00N 36°47' W 009°32'917.2
2018-Jul-09 09:29N 36°55' W 009°35'1117.3
2018-Jul-09 08:52N 37°06' W 009°38'1017.7
2018-Jul-09 08:18N 37°16' W 009°41'517.9
2018-Jul-09 08:00N 37°21' W 009°42'917.6
2018-Jul-09 07:30N 37°30' W 009°45'917.8
2018-Jul-09 07:01N 37°38' W 009°47'917.8
2018-Jul-09 06:31N 37°47' W 009°50'917.8
2018-Jul-09 06:01N 37°55' W 009°53'917.1
2018-Jul-09 05:30N 38°03' W 009°56'917.1
2018-Jul-09 05:00N 38°12' W 009°58'917.4
2018-Jul-09 04:30N 38°20' W 010°00'917.6
2018-Jul-09 04:00N 38°29' W 010°03'917.3
2018-Jul-09 03:31N 38°37' W 010°06'917.4
2018-Jul-09 03:00N 38°46' W 010°07'917.6
2018-Jul-09 02:31N 38°55' W 010°07'917.4
2018-Jul-09 02:00N 39°03' W 010°07'918.0
2018-Jul-09 01:30N 39°12' W 010°07'917.2
2018-Jul-09 01:00N 39°21' W 010°07'917.6
2018-Jul-09 00:30N 39°30' W 010°07'917.6
2018-Jul-08 23:59N 39°39' W 010°07'917.6
2018-Jul-08 23:30N 39°47' W 010°07'1317.4
2018-Jul-08 22:44N 40°01' W 010°06'417.4
2018-Jul-08 22:30N 40°05' W 010°06'1117.5
2018-Jul-08 21:54N 40°15' W 010°06'717.9
2018-Jul-08 21:30N 40°22' W 010°06'917.7
2018-Jul-08 20:59N 40°32' W 010°06'917.8
2018-Jul-08 20:28N 40°41' W 010°06'48917.1
2018-Jul-07 15:58N 48°21' W 006°16'818.2
2018-Jul-07 15:30N 48°28' W 006°10'917.9
2018-Jul-07 15:01N 48°36' W 006°03'918.2
2018-Jul-07 14:31N 48°44' W 005°57'917.8
2018-Jul-07 14:00N 48°52' W 005°50'817.0
2018-Jul-07 13:31N 48°58' W 005°41'917.3
2018-Jul-07 13:00N 49°02' W 005°30'917.1
2018-Jul-07 12:31N 49°06' W 005°18'816.8
2018-Jul-07 12:01N 49°10' W 005°07'816.6
2018-Jul-07 11:31N 49°14' W 004°56'816.3
2018-Jul-07 11:00N 49°19' W 004°45'816.3
2018-Jul-07 10:30N 49°23' W 004°34'1016.5
2018-Jul-07 09:55N 49°28' W 004°22'1016.7
2018-Jul-07 09:19N 49°33' W 004°08'517.0
2018-Jul-07 09:01N 49°35' W 004°01'917.3
2018-Jul-07 08:30N 49°40' W 003°49'917.6
2018-Jul-07 08:00N 49°44' W 003°38'917.9
2018-Jul-07 07:30N 49°49' W 003°26'918.3
2018-Jul-07 07:00N 49°53' W 003°13'918.3
2018-Jul-07 06:31N 49°58' W 003°01'917.9
2018-Jul-07 06:00N 50°01' W 002°48'917.8
2018-Jul-07 05:30N 50°04' W 002°35'917.4
2018-Jul-07 05:00N 50°06' W 002°22'917.1
2018-Jul-07 04:30N 50°08' W 002°09'816.5
2018-Jul-07 04:00N 50°11' W 001°57'816.0
2018-Jul-07 03:30N 50°13' W 001°45'815.5
2018-Jul-07 03:00N 50°15' W 001°33'715.1
2018-Jul-07 02:31N 50°17' W 001°22'815.0
2018-Jul-07 02:00N 50°19' W 001°10'714.8
2018-Jul-07 01:30N 50°21' W 000°59'815.3
2018-Jul-07 01:00N 50°23' W 000°48'815.8
2018-Jul-07 00:30N 50°26' W 000°36'816.1
2018-Jul-07 00:00N 50°28' W 000°24'816.7
2018-Jul-06 23:30N 50°30' W 000°11'917.1
2018-Jul-06 23:00N 50°32' E 000°02'917.7
2018-Jul-06 22:30N 50°35' E 000°15'918.0
2018-Jul-06 22:01N 50°38' E 000°29'917.9
2018-Jul-06 21:30N 50°42' E 000°41'917.7
2018-Jul-06 21:01N 50°47' E 000°53'917.1
2018-Jul-06 20:31N 50°52' E 001°04'816.9
2018-Jul-06 20:00N 50°57' E 001°14'816.0
2018-Jul-06 19:30N 51°02' E 001°24'815.7
2018-Jul-06 19:01N 51°07' E 001°34'815.3
2018-Jul-06 18:31N 51°12' E 001°43'815.3
2018-Jul-06 18:00N 51°18' E 001°50'815.8
2018-Jul-06 17:30N 51°25' E 001°56'816.5
2018-Jul-06 17:01N 51°32' E 002°03'816.8
2018-Jul-06 16:31N 51°38' E 002°13'917.0
2018-Jul-06 16:01N 51°44' E 002°23'917.7
2018-Jul-06 15:31N 51°50' E 002°32'918.1
2018-Jul-06 15:01N 51°57' E 002°42'918.2
2018-Jul-06 14:30N 52°04' E 002°51'918.3
2018-Jul-06 14:01N 52°11' E 003°00'918.3
2018-Jul-06 13:31N 52°19' E 003°09'918.0
2018-Jul-06 13:00N 52°26' E 003°18'917.8
2018-Jul-06 12:30N 52°34' E 003°26'917.3
2018-Jul-06 12:00N 52°41' E 003°35'917.1
2018-Jul-06 11:31N 52°47' E 003°43'816.9
2018-Jul-06 11:01N 52°54' E 003°53'816.6
2018-Jul-06 10:30N 52°60' E 004°02'816.3
2018-Jul-06 10:00N 53°05' E 004°13'816.4
2018-Jul-06 09:30N 53°10' E 004°23'816.1
2018-Jul-06 09:00N 53°17' E 004°30'816.4
2018-Jul-06 08:31N 53°24' E 004°35'816.4
2018-Jul-06 08:00N 53°31' E 004°44'917.2
2018-Jul-06 07:30N 53°33' E 004°58'917.6
2018-Jul-06 07:00N 53°36' E 005°12'918.0
2018-Jul-06 06:30N 53°39' E 005°26'917.9
2018-Jul-06 06:00N 53°42' E 005°41'1017.7
2018-Jul-06 05:28N 53°45' E 005°56'817.6
2018-Jul-06 05:00N 53°48' E 006°09'917.3
2018-Jul-06 04:28N 53°51' E 006°24'916.9
2018-Jul-06 03:55N 53°53' E 006°39'916.7
2018-Jul-06 03:24N 53°55' E 006°54'1616.4
2018-Jul-06 02:24N 53°58' E 007°21'1612.7
2018-Jul-06 01:07N 53°53' E 007°47'212.1
2018-Jul-06 00:59N 53°52' E 007°50'510.4
2018-Jul-06 00:30N 53°51' E 007°58'713.8
2018-Jul-06 00:00N 53°48' E 008°08'714.8
2018-Jul-05 23:30N 53°43' E 008°18'815.4
2018-Jul-05 23:01N 53°38' E 008°27'5 9.5
2018-Jul-05 22:30N 53°34' E 008°32'0 0.6
2018-Jul-05 22:00N 53°34' E 008°33'0 0.8
2018-Jul-05 21:30N 53°35' E 008°33'0 0.0
2018-Jul-05 21:00N 53°35' E 008°33'0 0.0
2018-Jul-05 20:30N 53°35' E 008°33'0 0.0
2018-Jul-05 20:00N 53°35' E 008°33'0 0.0
2018-Jul-05 19:30N 53°35' E 008°33'0 0.0
2018-Jul-05 19:00N 53°35' E 008°33'0 0.0
2018-Jul-05 18:30N 53°35' E 008°33'0 0.0
2018-Jul-05 18:00N 53°35' E 008°33'0 0.0
2018-Jul-05 17:30N 53°35' E 008°33'0 0.0
2018-Jul-05 17:00N 53°35' E 008°33'0 0.0
2018-Jul-05 16:30N 53°35' E 008°33'0 0.0
2018-Jul-05 16:00N 53°35' E 008°33'0 0.0
2018-Jul-05 15:30N 53°35' E 008°33'0 0.0
2018-Jul-05 15:00N 53°35' E 008°33'0 0.0
2018-Jul-05 14:00N 53°35' E 008°33'0 0.0
2018-Jul-05 13:30N 53°35' E 008°33'0 0.0
2018-Jul-05 13:00N 53°35' E 008°33'0 0.0
2018-Jul-05 12:30N 53°35' E 008°33'0 0.0
2018-Jul-05 12:00N 53°35' E 008°33'0 0.0
2018-Jul-05 11:30N 53°35' E 008°33'0 0.0
2018-Jul-05 11:00N 53°35' E 008°33'0 0.0
2018-Jul-05 10:30N 53°35' E 008°33'0 0.1
2018-Jul-05 10:00N 53°35' E 008°33'0 0.1
2018-Jul-05 09:30N 53°35' E 008°33'0 0.0
2018-Jul-05 09:00N 53°35' E 008°33'0 0.0
2018-Jul-05 08:30N 53°35' E 008°33'0 0.0
2018-Jul-05 08:00N 53°35' E 008°33'0 0.0
2018-Jul-05 07:30N 53°35' E 008°33'0 0.0
2018-Jul-05 07:00N 53°35' E 008°33'0 0.0
2018-Jul-05 06:30N 53°35' E 008°33'0 0.0
2018-Jul-05 06:00N 53°35' E 008°33'0 0.0
2018-Jul-05 05:30N 53°35' E 008°33'0 0.0
2018-Jul-05 05:00N 53°35' E 008°33'0 0.0
2018-Jul-05 04:30N 53°35' E 008°33'0 0.0
2018-Jul-05 04:00N 53°35' E 008°33'0 0.0
2018-Jul-05 03:30N 53°35' E 008°33'0 0.0
2018-Jul-05 03:00N 53°35' E 008°33'0 0.0
2018-Jul-05 02:30N 53°35' E 008°33'0 0.0
2018-Jul-05 02:00N 53°35' E 008°33'0 0.0
2018-Jul-05 01:30N 53°35' E 008°33'0 0.0
2018-Jul-05 01:00N 53°35' E 008°33'0 0.0
2018-Jul-05 00:30N 53°35' E 008°33'0 0.0
2018-Jul-05 00:00N 53°35' E 008°33'0 0.0
2018-Jul-04 23:30N 53°35' E 008°33'0 0.0
2018-Jul-04 23:00N 53°35' E 008°33'0 0.0
2018-Jul-04 22:30N 53°35' E 008°33'0 0.0
2018-Jul-04 22:00N 53°35' E 008°33'0 0.0
2018-Jul-04 21:30N 53°35' E 008°33'0 0.0
2018-Jul-04 21:00N 53°35' E 008°33'0 0.0
2018-Jul-04 20:30N 53°35' E 008°33'0 0.0
2018-Jul-04 20:00N 53°35' E 008°33'0 0.0
2018-Jul-04 19:30N 53°35' E 008°33'0 0.0
2018-Jul-04 19:00N 53°35' E 008°33'0 0.0
2018-Jul-04 18:30N 53°35' E 008°33'0 0.0
2018-Jul-04 18:00N 53°35' E 008°33'0 0.0
2018-Jul-04 17:30N 53°35' E 008°33'0 0.0
2018-Jul-04 17:00N 53°35' E 008°33'0 0.0
2018-Jul-04 16:30N 53°35' E 008°33'0 0.0
2018-Jul-04 16:00N 53°35' E 008°33'0 0.0
2018-Jul-04 15:30N 53°35' E 008°33'0 0.0
2018-Jul-04 15:00N 53°35' E 008°33'0 0.0
2018-Jul-04 14:30N 53°35' E 008°33'  

Dump ship's entire track history